Flight Track Log - Related Links

Times and Time Zones

All times are in EDT time to prevent confusion due to time zone crossing. See the UAL5961 flight status page for this flight to view local times or setup timezone preferences in your user account.

Time Position Orientation Groundspeed Altitude Reporting Facility
EDT Latitude Longitude Course Direction KTS MPH feet Rate Location/Type
Fri 06:26:37 AM 40.8242 -77.8950 270° West 172 198 3,200  Level Cleveland Center
Fri 06:27:38 AM 40.8239 -77.9822 270° West 203 234 5,300 1,918 Climbing Cleveland Center
Fri 06:28:39 AM 40.8247 -78.0706 271° West 222 255 7,100 1,983 Climbing Cleveland Center
Fri 06:29:39 AM 40.8256 -78.1689 271° West 262 302 9,300 1,983 Climbing Cleveland Center
Fri 06:30:40 AM 40.8264 -78.2714 271° West 275 316 11,100 1,721 Climbing Cleveland Center
Fri 06:31:41 AM 40.8267 -78.3792 270° West 290 334 12,800 1,426 Climbing Cleveland Center
Fri 06:32:42 AM 40.8275 -78.4947 271° West 309 356 14,000 1,230 Climbing Cleveland Center
Fri 06:33:43 AM 40.8275 -78.6164 270° West 325 374 15,300 1,328 Climbing Cleveland Center
Fri 06:34:44 AM 40.8283 -78.7403 271° West 332 382 16,700 1,289 Climbing Cleveland Center
Fri 06:35:44 AM 40.8292 -78.8633 271° West 334 384 17,900 1,289 Climbing Cleveland Center
Fri 06:36:45 AM 40.8300 -78.9881 271° West 335 386 19,300 1,328 Climbing Cleveland Center
Fri 06:37:46 AM 40.8336 -79.1136 272° West 337 388 20,600 1,328 Climbing Cleveland Center
Fri 06:38:47 AM 40.8492 -79.2392 279° West 344 396 22,000 1,328 Climbing Cleveland Center
Fri 06:39:48 AM 40.8658 -79.3633 280° West 346 398 23,300 1,328 Climbing Cleveland Center
Fri 06:40:49 AM 40.8822 -79.4861 280° West 344 396 24,700 1,328 Climbing Cleveland Center
Fri 06:41:50 AM 40.8969 -79.6086 279° West 343 395 26,000 1,289 Climbing Cleveland Center
Fri 06:42:50 AM 40.9114 -79.7269 279° West 334 384 27,300 1,438 Climbing Cleveland Center
Fri 06:43:51 AM 40.9286 -79.8669 279° West 325 374 28,900 1,377 Climbing Cleveland Center
Fri 06:44:52 AM 40.9419 -79.9817 279° West 323 372 30,100 1,131 Climbing Cleveland Center
Fri 06:45:53 AM 40.9561 -80.0956 279° West 321 369 31,200 1,033 Climbing Cleveland Center
Fri 06:46:54 AM 40.9700 -80.2122 279° West 321 369 32,200 1,033 Climbing Cleveland Center
Fri 06:47:55 AM 40.9842 -80.3292 279° West 322 371 33,300 1,033 Climbing Cleveland Center
Fri 06:48:56 AM 40.9969 -80.4447 278° West 322 371 34,300 984 Climbing Cleveland Center
Fri 06:49:57 AM 41.0114 -80.5594 280° West 319 367 35,300 836 Climbing Cleveland Center
Fri 06:50:58 AM 41.0250 -80.6733 279° West 316 364 36,000 347 Climbing Cleveland Center
Fri 06:51:58 AM 41.0386 -80.7936 279° West 328 377 36,000  Level Cleveland Center
Fri 06:52:59 AM 41.0511 -80.9208 277° West 345 397 36,000  Level Cleveland Center
Fri 06:54:00 AM 41.0611 -81.0811 275° West 361 415 36,000  Level Cleveland Center
Fri 06:55:01 AM 41.0700 -81.2186 275° West 368 423 36,000  Level Cleveland Center
Fri 06:56:02 AM 41.0781 -81.3528 275° West 363 418 36,000  Level Cleveland Center
Fri 06:57:03 AM 41.0858 -81.4869 274° West 362 417 36,000  Level Cleveland Center
Fri 06:58:04 AM 41.0939 -81.6192 275° West 358 412 36,000  Level Cleveland Center
Fri 06:59:05 AM 41.1014 -81.7517 274° West 357 411 36,000  Level Cleveland Center
Fri 07:00:06 AM 41.1078 -81.8622 274° West 357 411 36,000  Level Cleveland Center
Fri 07:01:07 AM 41.1156 -81.9992 274° West 363 418 36,000  Level Cleveland Center
Fri 07:02:08 AM 41.1247 -82.1642 274° West 380 437 36,000  Level Cleveland Center
Fri 07:03:09 AM 41.1328 -82.3058 274° West 381 438 36,000  Level Cleveland Center
Fri 07:04:10 AM 41.1408 -82.4503 274° West 386 444 36,000  Level Cleveland Center
Fri 07:05:11 AM 41.1478 -82.5881 274° West 377 434 36,000  Level Cleveland Center
Fri 07:06:12 AM 41.1553 -82.7264 274° West 376 433 36,000  Level Cleveland Center
Fri 07:07:13 AM 41.1617 -82.8603 274° West 366 421 36,000  Level Cleveland Center
Fri 07:08:15 AM 41.1686 -82.9961 274° West 366 421 36,000  Level Cleveland Center
Fri 07:09:16 AM 41.1747 -83.1342 273° West 370 426 36,000  Level Cleveland Center
Fri 07:10:17 AM 41.1817 -83.2664 274° West 382 440 36,000  Level Cleveland Center
Fri 07:11:18 AM 41.1886 -83.4086 274° West 383 441 36,000  Level Cleveland Center
Fri 07:12:19 AM 41.1950 -83.5528 273° West 386 444 36,000  Level Cleveland Center
Fri 07:13:20 AM 41.2011 -83.6958 273° West 387 445 36,000  Level Cleveland Center
Fri 07:14:21 AM 41.2081 -83.8664 273° West 385 443 36,000  Level Cleveland Center
Fri 07:15:23 AM 41.2136 -84.0022 273° West 389 448 36,000  Level Cleveland Center
Fri 07:16:24 AM 41.2194 -84.1456 273° West 389 448 36,000  Level Cleveland Center
Fri 07:17:25 AM 41.2247 -84.2892 273° West 389 448 36,000 -393 Level Cleveland Center
Fri 07:18:26 AM 41.2281 -84.4331 272° West 389 448 35,200 -984 Descending Cleveland Center
Fri 07:19:27 AM 41.2328 -84.5767 273° West 390 449 34,000 -713 Descending Cleveland Center
Fri 07:20:07 AM 41.2375 -84.6903 273° West 390 449 34,000  Level Chicago Center
Fri 07:21:08 AM 41.2436 -84.8364 273° West 391 450 34,000  Level Chicago Center
Fri 07:22:09 AM 41.2494 -84.9811 273° West 392 451 34,000  Level Chicago Center
Fri 07:23:09 AM 41.2542 -85.1219 273° West 385 443 34,000 -744 Level Chicago Center
Fri 07:24:10 AM 41.2586 -85.2622 272° West 383 441 32,500 -1,721 Descending Chicago Center
Fri 07:25:11 AM 41.2636 -85.3964 273° West 370 426 30,500 -2,016 Descending Chicago Center
Fri 07:26:12 AM 41.2678 -85.5322 272° West 365 420 28,400 -2,066 Descending Chicago Center
Fri 07:27:13 AM 41.2728 -85.6747 273° West 380 437 26,300 -1,672 Descending Chicago Center
Fri 07:28:14 AM 41.2761 -85.8231 272° West 395 455 25,000 -639 Descending Chicago Center
Fri 07:29:15 AM 41.2806 -85.9694 272° West 395 455 25,000 -49 Level Chicago Center
Fri 07:30:16 AM 41.2908 -86.1094 276° West 383 441 24,900 -639 Descending Chicago Center
Fri 07:31:17 AM 41.3075 -86.2503 279° West 382 440 23,700 -1,672 Descending Chicago Center
Fri 07:32:18 AM 41.3236 -86.3850 279° West 371 427 21,500 -2,390 Descending Chicago Center
Fri 07:33:20 AM 41.3494 -86.5147 285° West 361 415 18,800 -2,557 Descending Chicago Center
Fri 07:34:20 AM 41.4281 -86.5964 322° Northwest 359 413 16,300 -2,628 Descending Chicago Center
Fri 07:35:21 AM 41.5117 -86.6689 327° Northwest 358 412 13,500 -2,066 Descending Chicago Center
Fri 07:36:22 AM 41.6067 -86.7500 327° Northwest 358 412 12,100 -738 Descending Chicago Center
Fri 07:37:23 AM 41.7006 -86.8011 338° Northwest 344 396 12,000 -49 Descending Chicago Center
Fri 07:38:24 AM 41.7903 -86.8128 354° North 328 377 12,000 -49 Level Chicago Center
Fri 07:39:25 AM 41.8772 -86.8483 343° North 335 386 11,900 -689 Descending Chicago Center
Fri 07:40:26 AM 41.9194 -86.9614 297° West 341 392 10,600 -934 Descending Chicago Center
Fri 07:41:27 AM 41.9631 -87.0794 296° West 331 381 10,000 -393 Descending Chicago Center
Fri 07:42:28 AM 41.9886 -87.1822 289° West 289 333 9,800 -443 Descending Chicago Center
Fri 07:43:29 AM 41.9786 -87.2833 262° West 275 316 9,100 -738 Descending Chicago Center
Fri 07:44:30 AM 41.9831 -87.3833 273° West 269 310 8,300 -1,328 Descending Chicago Center
Fri 07:45:31 AM 41.9828 -87.4906 270° West 270 311 6,400 -1,574 Descending Chicago Center
Fri 07:46:32 AM 41.9831 -87.5842 270° West 254 292 5,100 -1,230 Descending Chicago Center
Fri 07:47:33 AM 41.9828 -87.6658 270° West 222 255 3,900 -1,131 Descending Chicago Center
Fri 07:48:34 AM 41.9833 -87.7417 271° West 206 237 2,800 -1,033 Descending Chicago Center
Fri 07:49:35 AM 41.9836 -87.8086 270° West 168 193 1,800 -780 Descending Chicago Center
Fri 07:50:37 AM 41.9828 -87.8561 269° West 133 153 1,200 -488 Descending Chicago Center
Fri 07:51:38 AM 41.9825 -87.8975 269° West 130 150 800 -393 Descending Chicago Center
Fri 07:53:00 AM 41.9793 -87.9074 270° West  Level Estimated

Login

Don't have an account? Register now (free) for customized features, flight alerts, and more!